Time;durP1;ratioP1;P1;durP2;ratioP2;P2;SDS_P1;SDS_P2;PMS_P1;PMS_P2;Temp;Humidity;BMP_temperature;BMP_pressure;BME280_temperature;BME280_humidity;BME280_pressure;Samples;Min_cycle;Max_cycle;Signal;HPM_P1;HPM_P2
2022/07/20 00:01:27;;;;;;;6.53;4.47;;;24.70;60.20;;;;;;4977711;28;20496;-77
2022/07/20 00:03:55;;;;;;;6.40;4.90;;;24.60;60.80;;;;;;4995168;28;20447;-76
2022/07/20 00:06:24;;;;;;;5.60;4.37;;;24.60;60.20;;;;;;4995254;28;20449;-76
2022/07/20 00:11:38;;;;;;;5.80;4.20;;;24.50;60.30;;;;;;4977283;28;20920;-76
2022/07/20 00:14:06;;;;;;;5.70;5.10;;;24.50;60.40;;;;;;4995052;28;20444;-76
2022/07/20 00:16:36;;;;;;;5.80;5.27;;;24.40;60.40;;;;;;4977273;28;20548;-76
2022/07/20 00:19:05;;;;;;;5.03;4.53;;;24.40;61.20;;;;;;4994987;28;20483;-76
2022/07/20 00:21:34;;;;;;;5.47;4.90;;;24.30;60.50;;;;;;4977156;28;20902;-76
2022/07/20 00:24:03;;;;;;;5.07;4.57;;;24.30;60.50;;;;;;4977254;28;20471;-76
2022/07/20 00:26:31;;;;;;;6.60;5.00;;;24.30;60.60;;;;;;4994626;28;20449;-76
2022/07/20 00:28:59;;;;;;;5.23;4.77;;;24.20;60.60;;;;;;4994488;28;20437;-76
2022/07/20 00:31:27;;;;;;;6.80;5.20;;;24.20;60.60;;;;;;4994385;28;20885;-76
2022/07/20 00:33:55;;;;;;;6.30;5.00;;;24.20;60.70;;;;;;4994974;28;20433;-76
2022/07/20 00:36:24;;;;;;;5.67;4.70;;;24.20;61.40;;;;;;4994618;28;20449;-76
2022/07/20 00:38:53;;;;;;;8.30;4.73;;;24.10;60.70;;;;;;4994574;28;20544;-76
2022/07/20 00:41:22;;;;;;;5.70;5.20;;;24.10;61.50;;;;;;4994570;28;20547;-76
2022/07/20 00:43:56;;;;;;;6.07;5.43;;;24.00;60.80;;;;;;4977123;28;20556;-76
2022/07/20 00:46:25;;;;;;;6.10;4.87;;;24.00;61.00;;;;;;4993165;28;20445;-76
2022/07/20 00:48:53;;;;;;;5.30;4.80;;;23.90;61.10;;;;;;4976887;28;20441;-76
2022/07/20 00:51:22;;;;;;;5.20;4.50;;;23.90;61.20;;;;;;4994098;28;21060;-76
2022/07/20 00:53:51;;;;;;;5.47;4.97;;;23.80;61.20;;;;;;4994206;28;20441;-76
2022/07/20 00:56:21;;;;;;;7.60;5.10;;;23.80;61.20;;;;;;4993432;28;20490;-76
2022/07/20 00:58:50;;;;;;;6.60;4.83;;;23.80;61.20;;;;;;4994104;28;20513;-76
2022/07/20 01:01:19;;;;;;;6.87;4.70;;;23.70;61.10;;;;;;4994367;28;20456;-76
2022/07/20 01:03:47;;;;;;;5.57;4.77;;;23.70;61.10;;;;;;4976649;28;20543;-76
2022/07/20 01:06:16;;;;;;;5.57;4.83;;;23.70;61.20;;;;;;4994120;28;20440;-76
2022/07/20 01:08:44;;;;;;;5.60;5.10;;;23.70;61.30;;;;;;4994031;28;20961;-76
2022/07/20 01:11:12;;;;;;;5.87;4.80;;;23.60;61.30;;;;;;4993801;28;20472;-76
2022/07/20 01:13:42;;;;;;;5.97;4.70;;;23.60;61.30;;;;;;4976481;28;20503;-76
2022/07/20 01:16:10;;;;;;;4.80;4.40;;;23.60;61.30;;;;;;4976423;28;20541;-76
2022/07/20 01:18:38;;;;;;;5.97;5.37;;;23.60;61.30;;;;;;4976451;28;20536;-76
2022/07/20 01:21:09;;;;;;;8.00;5.13;;;23.60;61.30;;;;;;4994638;28;20862;-76
2022/07/20 01:23:37;;;;;;;5.30;4.90;;;23.50;61.20;;;;;;4976433;28;20457;-76
2022/07/20 01:26:05;;;;;;;5.93;4.40;;;23.50;61.20;;;;;;4994114;28;20519;-76
2022/07/20 01:28:33;;;;;;;5.80;4.77;;;23.50;61.30;;;;;;4976375;28;20449;-77
2022/07/20 01:31:01;;;;;;;6.43;5.00;;;23.50;62.00;;;;;;4976216;28;20473;-77
2022/07/20 01:33:30;;;;;;;4.83;4.30;;;23.50;61.30;;;;;;4976294;28;20855;-77
2022/07/20 01:35:58;;;;;;;6.30;4.77;;;23.50;61.30;;;;;;4993813;28;20958;-77
2022/07/20 01:38:27;;;;;;;5.87;5.13;;;23.40;61.20;;;;;;4993736;28;20867;-77
2022/07/20 01:40:55;;;;;;;11.17;4.90;;;23.40;61.20;;;;;;4993890;28;20789;-77
2022/07/20 01:43:24;;;;;;;5.30;4.80;;;23.40;61.20;;;;;;4976217;28;20511;-76
2022/07/20 01:45:52;;;;;;;6.63;4.83;;;23.40;61.20;;;;;;4976067;28;20961;-76
2022/07/20 01:48:20;;;;;;;6.07;5.10;;;23.40;61.20;;;;;;4976160;28;20547;-76
2022/07/20 01:50:48;;;;;;;5.70;5.17;;;23.40;61.20;;;;;;4976145;28;20472;-76
2022/07/20 01:53:16;;;;;;;5.50;4.80;;;23.40;61.20;;;;;;4993496;28;20807;-76
2022/07/20 01:55:46;;;;;;;6.13;5.30;;;23.40;61.20;;;;;;4993566;28;20447;-76
2022/07/20 01:58:14;;;;;;;5.27;4.73;;;23.40;61.40;;;;;;4976101;28;20613;-76
2022/07/20 02:00:43;;;;;;;5.90;5.30;;;23.40;61.40;;;;;;4993503;28;20523;-76
2022/07/20 02:03:11;;;;;;;5.03;4.53;;;23.30;61.40;;;;;;4975998;28;20456;-76
2022/07/20 02:05:39;;;;;;;5.50;4.83;;;23.30;61.50;;;;;;4993415;28;20875;-76
2022/07/20 02:08:07;;;;;;;4.70;4.30;;;23.30;61.60;;;;;;4996280;28;20447;-76
2022/07/20 02:10:36;;;;;;;4.93;4.53;;;23.30;61.60;;;;;;4997169;28;20447;-76
2022/07/20 02:13:05;;;;;;;7.30;6.43;;;23.20;61.50;;;;;;4997041;28;20482;-76
2022/07/20 02:18:19;;;;;;;5.40;4.77;;;23.20;61.70;;;;;;4997051;28;20977;-76
2022/07/20 02:20:47;;;;;;;6.10;4.77;;;23.20;61.70;;;;;;4996881;28;20464;-76
2022/07/20 02:23:15;;;;;;;6.07;5.37;;;23.10;62.20;;;;;;4979351;28;20473;-76
2022/07/20 02:25:44;;;;;;;4.80;4.20;;;23.10;61.60;;;;;;4979328;28;20460;-76
2022/07/20 02:28:13;;;;;;;5.90;4.60;;;23.10;61.60;;;;;;4979371;28;20444;-76
2022/07/20 02:30:41;;;;;;;5.70;5.10;;;23.10;61.80;;;;;;4996925;28;20448;-76
2022/07/20 02:33:09;;;;;;;5.20;4.60;;;23.10;61.80;;;;;;4979071;28;20480;-76
2022/07/20 02:35:38;;;;;;;7.97;4.70;;;23.10;61.80;;;;;;4996626;28;20443;-76
2022/07/20 02:38:06;;;;;;;5.30;4.80;;;23.00;61.80;;;;;;4996583;28;20437;-76
2022/07/20 02:40:34;;;;;;;5.17;4.67;;;23.00;61.90;;;;;;4979071;28;20487;-76
2022/07/20 02:43:02;;;;;;;5.20;4.53;;;23.00;61.90;;;;;;4996622;28;20459;-76
2022/07/20 02:45:32;;;;;;;5.77;4.13;;;22.90;61.90;;;;;;4979006;28;20882;-76
2022/07/20 02:48:03;;;;;;;6.80;5.00;;;22.90;62.00;;;;;;4996283;28;20476;-76
2022/07/20 02:50:33;;;;;;;5.10;4.23;;;22.90;62.00;;;;;;4996313;28;20509;-75
2022/07/20 02:53:01;;;;;;;6.10;5.30;;;22.90;62.10;;;;;;4996227;28;20575;-75
2022/07/20 02:55:29;;;;;;;7.83;5.63;;;22.90;62.10;;;;;;4996249;28;20444;-75
2022/07/20 02:57:58;;;;;;;5.40;4.90;;;22.90;62.20;;;;;;4996187;28;20452;-76
2022/07/20 03:00:26;;;;;;;7.23;5.20;;;22.90;62.20;;;;;;4996186;28;20440;-75
2022/07/20 03:02:56;;;;;;;6.40;5.67;;;22.80;62.80;;;;;;4996360;28;20456;-75
2022/07/20 03:05:24;;;;;;;6.50;5.20;;;22.80;62.30;;;;;;4978624;28;21012;-75
2022/07/20 03:07:53;;;;;;;5.90;5.33;;;22.80;62.30;;;;;;4978588;28;20453;-75
2022/07/20 03:10:21;;;;;;;6.10;5.47;;;22.80;62.40;;;;;;4996051;28;20531;-76
2022/07/20 03:12:49;;;;;;;5.87;5.27;;;22.80;62.40;;;;;;4995812;28;20477;-75
2022/07/20 03:15:18;;;;;;;5.57;4.97;;;22.80;62.50;;;;;;4995866;28;20941;-75
2022/07/20 03:17:48;;;;;;;5.93;5.33;;;22.70;62.50;;;;;;4995892;28;20445;-75
2022/07/20 03:20:20;;;;;;;5.80;5.30;;;22.70;62.70;;;;;;4995380;28;20524;-76
2022/07/20 03:22:49;;;;;;;5.73;5.23;;;22.70;62.80;;;;;;4978520;28;20464;-75
2022/07/20 03:25:17;;;;;;;5.50;5.00;;;22.70;62.90;;;;;;4996309;28;20528;-75
2022/07/20 03:27:45;;;;;;;6.00;5.40;;;22.60;62.90;;;;;;4978171;28;20551;-75
2022/07/20 03:30:16;;;;;;;6.67;5.37;;;22.60;63.00;;;;;;4995642;28;20445;-76
2022/07/20 03:32:44;;;;;;;7.37;5.40;;;22.60;63.00;;;;;;4978286;28;20476;-76
2022/07/20 03:35:12;;;;;;;8.93;5.07;;;22.60;63.10;;;;;;4995519;28;20468;-75
2022/07/20 03:37:42;;;;;;;7.73;5.90;;;22.50;63.00;;;;;;4995793;28;20488;-75
2022/07/20 03:40:11;;;;;;;6.43;5.50;;;22.50;63.10;;;;;;4978033;28;20448;-75
2022/07/20 03:42:39;;;;;;;5.80;5.20;;;22.50;63.20;;;;;;4977939;28;20486;-75
2022/07/20 03:45:08;;;;;;;7.13;5.50;;;22.50;63.30;;;;;;4995350;28;20511;-75
2022/07/20 03:47:36;;;;;;;7.33;5.10;;;22.40;63.30;;;;;;4977914;28;20448;-75
2022/07/20 03:50:05;;;;;;;9.03;5.60;;;22.40;63.40;;;;;;4995538;28;20441;-75
2022/07/20 03:52:33;;;;;;;7.40;5.17;;;22.40;63.50;;;;;;4995085;28;21052;-75
2022/07/20 03:55:04;;;;;;;5.43;4.90;;;22.40;63.60;;;;;;4977932;28;21036;-75
2022/07/20 03:57:33;;;;;;;8.00;5.00;;;22.40;63.80;;;;;;4995193;28;20421;-75
2022/07/20 04:00:01;;;;;;;10.20;5.50;;;22.30;63.70;;;;;;4977882;28;20447;-75
2022/07/20 04:02:31;;;;;;;6.27;4.70;;;22.30;63.80;;;;;;4995650;28;20469;-75
2022/07/20 04:05:00;;;;;;;8.50;5.57;;;22.30;64.00;;;;;;4977573;28;20441;-75
2022/07/20 04:07:28;;;;;;;6.07;5.23;;;22.20;64.00;;;;;;4995239;28;20459;-75
2022/07/20 04:09:56;;;;;;;9.00;5.47;;;22.20;64.10;;;;;;4993628;28;20818;-75
2022/07/20 04:12:26;;;;;;;5.90;5.40;;;22.20;64.20;;;;;;4994662;28;20476;-75
2022/07/20 04:14:55;;;;;;;8.23;5.13;;;22.20;64.40;;;;;;4994901;28;20961;-75
2022/07/20 04:17:23;;;;;;;10.93;5.17;;;22.20;64.50;;;;;;4994898;28;20443;-75
2022/07/20 04:19:51;;;;;;;9.30;5.40;;;22.20;64.70;;;;;;4994760;28;20443;-75
2022/07/20 04:22:19;;;;;;;6.53;5.80;;;22.20;64.80;;;;;;4994646;28;20536;-75
2022/07/20 04:24:48;;;;;;;5.60;5.03;;;22.20;65.00;;;;;;4994632;28;20443;-75
2022/07/20 04:27:16;;;;;;;5.90;5.40;;;22.10;65.10;;;;;;4994648;28;20447;-75
2022/07/20 04:29:45;;;;;;;5.70;5.20;;;22.10;65.20;;;;;;4994621;28;20544;-75
2022/07/20 04:32:13;;;;;;;7.07;5.70;;;22.10;65.30;;;;;;4995027;28;20531;-76
2022/07/20 04:34:41;;;;;;;7.40;4.83;;;22.10;65.40;;;;;;4994554;28;20439;-76
2022/07/20 04:37:10;;;;;;;7.00;6.17;;;22.10;65.60;;;;;;4977188;28;20544;-78
2022/07/20 04:39:39;;;;;;;7.60;5.30;;;22.10;65.60;;;;;;4994377;28;20842;-75
2022/07/20 04:42:07;;;;;;;6.40;5.07;;;22.00;65.70;;;;;;4994758;28;20820;-76
2022/07/20 04:44:36;;;;;;;5.17;4.70;;;22.10;65.90;;;;;;4994429;28;20448;-76
2022/07/20 04:47:06;;;;;;;7.13;5.40;;;22.10;66.00;;;;;;4977030;28;20488;-75
2022/07/20 04:49:34;;;;;;;6.37;5.53;;;22.10;66.10;;;;;;4976936;28;20881;-76
2022/07/20 04:52:03;;;;;;;5.97;5.37;;;22.10;66.20;;;;;;4978003;28;20480;-76
2022/07/20 04:54:38;;;;;;;5.80;5.20;;;22.10;66.30;;;;;;4996446;28;20424;-76
2022/07/20 04:57:06;;;;;;;6.17;5.57;;;22.10;66.50;;;;;;4995653;28;20468;-76
2022/07/20 04:59:34;;;;;;;7.90;6.03;;;22.10;66.50;;;;;;4994442;28;20437;-76
2022/07/20 05:02:02;;;;;;;8.60;7.27;;;22.10;67.30;;;;;;4976791;28;20572;-76
2022/07/20 05:04:32;;;;;;;7.60;6.30;;;22.10;66.60;;;;;;4994168;28;20433;-76
2022/07/20 05:07:01;;;;;;;6.43;5.67;;;22.10;66.70;;;;;;4994911;28;20934;-76
2022/07/20 05:09:29;;;;;;;7.50;6.17;;;22.20;66.90;;;;;;4994513;28;20447;-77
2022/07/20 05:11:58;;;;;;;7.43;6.70;;;22.20;66.90;;;;;;4994261;28;20462;-76
2022/07/20 05:14:26;;;;;;;6.93;6.10;;;22.20;66.90;;;;;;4994237;28;20496;-76
2022/07/20 05:16:54;;;;;;;6.93;5.50;;;22.20;67.00;;;;;;4976490;28;20865;-76
2022/07/20 05:19:23;;;;;;;9.17;6.80;;;22.20;67.00;;;;;;4993996;28;20992;-74
2022/07/20 05:21:52;;;;;;;7.83;5.70;;;22.30;67.30;;;;;;4993770;28;20981;-71
2022/07/20 05:24:20;;;;;;;5.70;5.10;;;22.30;67.30;;;;;;4976484;28;20447;-71
2022/07/20 05:26:48;;;;;;;5.77;5.17;;;22.30;67.30;;;;;;4994340;28;20480;-71
2022/07/20 05:29:17;;;;;;;10.73;6.07;;;22.40;67.50;;;;;;4976442;28;20437;-76
2022/07/20 05:31:45;;;;;;;6.83;5.33;;;22.40;67.50;;;;;;4993880;28;20456;-76
2022/07/20 05:34:13;;;;;;;6.07;5.57;;;22.50;67.60;;;;;;4994052;28;20483;-76
2022/07/20 05:36:41;;;;;;;7.33;5.50;;;22.50;67.60;;;;;;4976350;28;20445;-74
2022/07/20 05:39:11;;;;;;;6.90;6.20;;;22.60;67.80;;;;;;4976451;28;20519;-73
2022/07/20 05:41:40;;;;;;;7.33;6.07;;;22.60;67.90;;;;;;4994285;28;21076;-74
2022/07/20 05:44:08;;;;;;;6.63;6.00;;;22.70;67.90;;;;;;4997783;28;20444;-74
2022/07/20 05:46:36;;;;;;;7.20;5.87;;;22.80;67.90;;;;;;4998207;28;20449;-74
2022/07/20 05:49:05;;;;;;;9.73;5.50;;;22.90;67.90;;;;;;4997599;28;20452;-73
2022/07/20 05:51:34;;;;;;;5.10;4.67;;;23.00;68.00;;;;;;4997587;28;20458;-73
2022/07/20 05:54:02;;;;;;;6.87;5.07;;;23.20;68.10;;;;;;4980104;28;20563;-72
2022/07/20 05:56:32;;;;;;;5.47;4.80;;;23.40;68.20;;;;;;4997402;28;20440;-73
2022/07/20 05:59:00;;;;;;;7.00;5.90;;;23.60;68.10;;;;;;4981020;28;20853;-74
2022/07/20 06:01:28;;;;;;;6.50;4.97;;;23.90;68.10;;;;;;4997259;28;20463;-74
2022/07/20 06:03:57;;;;;;;9.80;5.43;;;24.20;68.10;;;;;;4998150;28;20459;-73
2022/07/20 06:06:25;;;;;;;6.63;5.87;;;24.40;68.20;;;;;;4997654;28;20812;-73
2022/07/20 06:08:53;;;;;;;8.73;6.20;;;24.70;69.00;;;;;;4997541;28;20441;-73
2022/07/20 06:11:43;;;;;;;7.10;5.63;;;25.00;68.50;;;;;;4997345;28;20467;-73
2022/07/20 06:14:11;;;;;;;5.93;5.03;;;25.40;69.10;;;;;;4979671;28;20930;-73
2022/07/20 06:16:39;;;;;;;5.97;5.40;;;25.80;68.30;;;;;;4997142;28;20437;-73
2022/07/20 06:19:07;;;;;;;7.60;5.37;;;26.10;67.90;;;;;;4979477;28;20453;-74
2022/07/20 06:21:36;;;;;;;5.87;5.27;;;26.40;67.60;;;;;;4996857;28;20453;-74
2022/07/20 06:24:05;;;;;;;5.63;5.03;;;26.70;67.50;;;;;;4996874;28;20445;-73
2022/07/20 06:26:33;;;;;;;6.30;4.60;;;26.90;67.10;;;;;;4996865;28;20464;-76
2022/07/20 06:29:03;;;;;;;12.20;5.93;;;27.20;66.80;;;;;;4979386;28;20511;-73
2022/07/20 06:31:31;;;;;;;7.90;5.47;;;27.50;66.50;;;;;;4997079;28;20485;-74
2022/07/20 06:34:19;;;;;;;7.67;4.90;;;27.80;66.40;;;;;;4979384;28;20532;-73
2022/07/20 06:36:48;;;;;;;5.73;5.13;;;28.10;66.30;;;;;;4997111;28;20447;-73
2022/07/20 06:39:16;;;;;;;8.70;5.13;;;28.40;66.00;;;;;;4997046;28;20449;-73
2022/07/20 06:41:44;;;;;;;8.97;7.97;;;28.70;65.80;;;;;;4996569;28;20466;-73
2022/07/20 06:44:14;;;;;;;6.60;5.47;;;28.90;65.30;;;;;;4996911;28;20539;-74
2022/07/20 06:46:42;;;;;;;5.70;4.57;;;29.20;65.70;;;;;;4996836;28;20617;-74
2022/07/20 06:49:11;;;;;;;7.87;7.07;;;29.40;64.90;;;;;;4978931;28;20829;-73
2022/07/20 06:51:39;;;;;;;9.27;8.00;;;29.70;64.90;;;;;;4996451;28;20461;-75
2022/07/20 06:54:07;;;;;;;8.47;6.07;;;29.90;64.90;;;;;;4977923;28;20469;-74
2022/07/20 06:56:42;;;;;;;8.67;5.43;;;30.20;64.70;;;;;;4996652;28;20429;-74
2022/07/20 06:59:10;;;;;;;8.10;5.30;;;30.40;64.20;;;;;;4996537;28;20495;-74
2022/07/20 07:01:40;;;;;;;5.40;4.90;;;30.60;63.80;;;;;;4996344;28;20555;-74
2022/07/20 07:04:08;;;;;;;9.37;8.17;;;30.80;63.20;;;;;;4996376;28;21013;-74
2022/07/20 07:06:37;;;;;;;7.20;5.73;;;31.00;63.10;;;;;;4996345;28;20465;-74
2022/07/20 07:09:05;;;;;;;8.10;6.90;;;31.20;62.90;;;;;;4996404;28;20523;-74
2022/07/20 07:11:34;;;;;;;13.03;11.73;;;31.40;62.80;;;;;;4996466;28;20464;-74
2022/07/20 07:14:02;;;;;;;7.47;5.90;;;31.60;62.80;;;;;;4997443;28;20472;-74
2022/07/20 07:16:30;;;;;;;5.63;5.13;;;31.70;62.40;;;;;;4978713;28;20441;-74
2022/07/20 07:19:00;;;;;;;6.80;5.07;;;31.90;62.40;;;;;;4996560;28;20930;-75
2022/07/20 07:21:28;;;;;;;10.20;7.10;;;32.10;61.90;;;;;;4996897;28;20829;-73
2022/07/20 07:23:56;;;;;;;10.00;7.43;;;32.30;61.30;;;;;;4996710;28;20513;-74
2022/07/20 07:26:25;;;;;;;10.50;9.10;;;32.40;60.70;;;;;;4997150;28;20441;-76
2022/07/20 07:28:53;;;;;;;10.20;8.43;;;32.50;60.50;;;;;;4978960;28;20930;-75
2022/07/20 07:31:29;;;;;;;7.13;5.70;;;32.70;60.00;;;;;;4996150;28;20484;-74
2022/07/20 07:33:57;;;;;;;5.77;5.20;;;32.80;60.10;;;;;;4978077;28;20527;-75
2022/07/20 07:36:27;;;;;;;5.67;5.07;;;33.00;60.00;;;;;;4995858;28;20464;-73
2022/07/20 07:38:55;;;;;;;7.17;4.90;;;33.20;59.90;;;;;;4978266;28;20575;-74
2022/07/20 07:41:24;;;;;;;6.60;4.80;;;33.30;59.60;;;;;;4978334;28;20519;-80
2022/07/20 07:43:52;;;;;;;7.13;4.50;;;33.50;59.50;;;;;;5002613;28;20476;-80
2022/07/20 07:46:20;;;;;;;14.20;9.77;;;33.60;58.90;;;;;;5002799;28;20520;-80
2022/07/20 07:48:49;;;;;;;8.57;7.40;;;33.70;58.60;;;;;;4984829;28;20467;-79
2022/07/20 07:51:18;;;;;;;7.83;5.50;;;33.80;58.50;;;;;;4999525;28;20507;-79
2022/07/20 07:53:47;;;;;;;6.90;4.80;;;34.00;58.20;;;;;;4984079;28;20515;-79
2022/07/20 07:56:16;;;;;;;8.17;4.70;;;34.10;57.90;;;;;;4987728;28;20449;-79
2022/07/20 07:58:44;;;;;;;9.10;4.90;;;34.20;58.00;;;;;;4983106;28;21057;-79
2022/07/20 08:01:34;;;;;;;7.27;4.50;;;34.30;58.10;;;;;;4981664;28;21057;-79
2022/07/20 08:04:02;;;;;;;6.47;4.20;;;34.40;57.80;;;;;;4981210;28;20820;-79
2022/07/20 08:06:30;;;;;;;8.00;4.47;;;34.50;57.40;;;;;;4998573;28;20540;-79
2022/07/20 08:09:00;;;;;;;7.33;4.47;;;34.70;57.10;;;;;;4980231;28;20456;-79
2022/07/20 08:11:30;;;;;;;7.70;4.80;;;34.80;57.00;;;;;;4979347;28;20477;-77
2022/07/20 08:14:02;;;;;;;7.47;4.40;;;34.90;56.30;;;;;;4979669;28;20495;-77
2022/07/20 08:16:31;;;;;;;6.53;4.30;;;35.00;55.60;;;;;;4997665;28;20471;-78
2022/07/20 08:19:00;;;;;;;5.70;3.90;;;35.10;55.40;;;;;;4997056;28;20814;-77
2022/07/20 08:21:28;;;;;;;4.80;3.90;;;35.20;54.60;;;;;;4996780;28;20523;-77
2022/07/20 08:24:04;;;;;;;6.30;4.10;;;35.30;54.10;;;;;;4996593;28;20901;-76
2022/07/20 08:26:33;;;;;;;7.20;4.13;;;35.30;53.50;;;;;;4997305;28;20775;-77
2022/07/20 08:29:01;;;;;;;5.93;3.63;;;35.40;53.00;;;;;;4998373;28;20437;-77
2022/07/20 08:31:35;;;;;;;5.00;4.50;;;35.40;52.40;;;;;;4996679;28;20811;-77
2022/07/20 08:34:03;;;;;;;5.63;4.67;;;35.40;51.90;;;;;;4995945;28;20536;-77
2022/07/20 08:36:32;;;;;;;5.53;4.23;;;35.50;51.70;;;;;;4996069;28;20503;-79
2022/07/20 08:39:01;;;;;;;6.20;4.03;;;35.50;51.60;;;;;;4977557;28;20456;-77
2022/07/20 08:41:33;;;;;;;4.93;4.50;;;35.60;51.40;;;;;;4996109;28;20482;-77
2022/07/20 08:44:01;;;;;;;5.30;4.80;;;35.60;52.00;;;;;;4996204;28;20499;-77
2022/07/20 08:46:31;;;;;;;5.07;4.13;;;35.70;51.70;;;;;;4977591;28;20432;-77
2022/07/20 08:49:00;;;;;;;5.17;4.67;;;35.70;51.20;;;;;;4995397;28;20426;-77
2022/07/20 08:51:29;;;;;;;13.37;5.23;;;35.70;50.90;;;;;;4996968;28;20857;-78
2022/07/20 08:53:57;;;;;;;5.13;4.67;;;35.80;50.50;;;;;;4979454;28;20463;-76
2022/07/20 08:56:25;;;;;;;4.77;4.20;;;35.80;50.30;;;;;;4978700;28;20476;-77
2022/07/20 08:58:55;;;;;;;5.40;4.30;;;35.80;50.70;;;;;;4977038;28;20443;-76
2022/07/20 09:01:26;;;;;;;4.97;4.27;;;35.90;49.80;;;;;;4977166;28;20491;-77
2022/07/20 09:04:07;;;;;;;4.90;4.40;;;35.90;50.00;;;;;;4976764;28;20823;-77
2022/07/20 09:06:49;;;;;;;6.60;3.90;;;36.00;49.70;;;;;;4994927;28;20429;-77
2022/07/20 09:09:19;;;;;;;7.30;4.20;;;36.00;49.80;;;;;;4977395;28;20897;-76
2022/07/20 09:11:48;;;;;;;5.93;4.63;;;36.10;50.10;;;;;;4994343;28;20547;-76
2022/07/20 09:14:36;;;;;;;7.20;4.50;;;36.20;49.60;;;;;;4994339;28;20445;-77
2022/07/20 09:17:16;;;;;;;6.63;4.70;;;36.20;48.90;;;;;;4994767;28;20444;-77
2022/07/20 09:20:00;;;;;;;5.60;4.70;;;36.30;49.10;;;;;;4977639;28;21012;-77
2022/07/20 09:22:34;;;;;;;4.83;4.03;;;36.30;48.50;;;;;;4994417;28;20555;-77
2022/07/20 09:25:12;;;;;;;4.90;4.20;;;36.40;48.30;;;;;;4994105;28;20793;-77
2022/07/20 09:27:40;;;;;;;5.70;4.37;;;36.40;48.40;;;;;;4994194;28;20421;-76
2022/07/20 09:30:12;;;;;;;7.70;4.23;;;36.50;48.20;;;;;;4976639;28;20460;-77
2022/07/20 09:32:51;;;;;;;9.17;5.43;;;36.50;47.90;;;;;;4994132;28;21032;-76
2022/07/20 09:35:21;;;;;;;5.83;4.17;;;36.60;47.50;;;;;;4993926;28;20468;-77
2022/07/20 09:37:59;;;;;;;4.20;3.80;;;36.70;47.80;;;;;;4976394;28;20459;-77
2022/07/20 09:40:28;;;;;;;6.33;4.47;;;36.70;48.20;;;;;;4992492;28;20445;-75
2022/07/20 09:42:56;;;;;;;4.80;4.40;;;36.80;47.70;;;;;;4976405;28;20471;-76
2022/07/20 09:45:30;;;;;;;4.97;4.27;;;36.90;47.60;;;;;;4993569;28;20460;-76
2022/07/20 09:48:11;;;;;;;6.60;4.53;;;36.90;47.10;;;;;;4993931;28;20432;-77
2022/07/20 09:50:41;;;;;;;7.00;4.90;;;37.00;46.70;;;;;;4976176;28;20449;-78
2022/07/20 09:53:11;;;;;;;7.17;5.17;;;37.00;46.10;;;;;;4976258;28;20579;-76
2022/07/20 09:55:41;;;;;;;4.70;4.20;;;37.00;45.90;;;;;;4993463;28;20472;-77
2022/07/20 09:58:09;;;;;;;5.37;4.87;;;37.00;45.70;;;;;;4993847;28;20460;-76
2022/07/20 10:00:39;;;;;;;5.07;4.57;;;37.00;45.80;;;;;;4976357;28;20441;-77
2022/07/20 10:03:15;;;;;;;5.23;4.83;;;37.10;45.80;;;;;;4993499;28;20488;-75
2022/07/20 10:05:44;;;;;;;6.63;4.30;;;37.20;46.00;;;;;;4993794;28;20440;-76
2022/07/20 10:08:13;;;;;;;5.07;4.53;;;37.20;45.70;;;;;;4993453;28;21004;-75
2022/07/20 10:10:41;;;;;;;5.03;4.50;;;37.30;45.60;;;;;;4975987;28;20453;-76
2022/07/20 10:13:09;;;;;;;7.30;4.57;;;37.30;45.30;;;;;;4993396;28;20456;-76
2022/07/20 10:15:50;;;;;;;6.23;5.60;;;37.40;45.20;;;;;;4993774;28;20571;-76
2022/07/20 10:18:19;;;;;;;4.67;3.90;;;37.40;45.40;;;;;;4976136;28;20520;-77
2022/07/20 10:20:50;;;;;;;5.93;5.00;;;37.50;45.70;;;;;;4994138;28;20782;-74
2022/07/20 10:23:38;;;;;;;5.07;4.63;;;37.50;45.20;;;;;;4993328;28;21027;-74
2022/07/20 10:26:25;;;;;;;5.40;4.83;;;37.50;44.40;;;;;;4975953;28;20880;-75
2022/07/20 10:29:00;;;;;;;5.63;5.10;;;37.60;44.40;;;;;;4995959;28;20519;-74
2022/07/20 10:31:49;;;;;;;8.30;5.23;;;37.60;44.00;;;;;;4979249;28;20499;-75
2022/07/20 10:34:36;;;;;;;5.90;5.30;;;37.60;43.40;;;;;;4996760;28;20842;-75
2022/07/20 10:37:23;;;;;;;4.93;4.53;;;37.60;43.90;;;;;;4996765;28;20911;-75
2022/07/20 10:39:52;;;;;;;7.93;5.30;;;37.60;43.50;;;;;;4997189;28;20421;-75
2022/07/20 10:42:22;;;;;;;5.60;4.93;;;37.60;43.50;;;;;;4995345;28;20460;-75
2022/07/20 10:44:51;;;;;;;5.93;5.20;;;37.60;43.40;;;;;;4996484;28;20452;-75
2022/07/20 10:47:43;;;;;;;5.43;4.93;;;37.60;43.30;;;;;;4996489;28;20528;-75
2022/07/20 10:50:17;;;;;;;5.67;5.20;;;37.60;43.70;;;;;;4996702;28;20475;-76
2022/07/20 10:52:46;;;;;;;7.77;5.67;;;37.60;43.70;;;;;;4996565;28;20496;-75
2022/07/20 10:55:47;;;;;;;6.17;5.47;;;37.70;43.70;;;;;;4996539;28;20436;-75
2022/07/20 10:58:17;;;;;;;7.63;4.90;;;37.70;43.50;;;;;;4995147;28;20449;-76
2022/07/20 11:00:47;;;;;;;6.50;6.00;;;37.70;44.10;;;;;;4996188;28;20433;-76
2022/07/20 11:03:19;;;;;;;6.03;5.53;;;37.70;43.90;;;;;;4996467;28;20507;-76
2022/07/20 11:05:49;;;;;;;8.97;6.20;;;37.70;44.30;;;;;;4978745;28;20433;-76
2022/07/20 11:08:17;;;;;;;6.70;6.03;;;37.70;44.20;;;;;;4996804;28;20519;-76
2022/07/20 11:10:46;;;;;;;6.20;5.53;;;37.70;44.50;;;;;;4979228;28;20453;-76
2022/07/20 11:13:14;;;;;;;7.00;5.60;;;37.70;44.90;;;;;;4978972;28;20516;-76
2022/07/20 11:15:45;;;;;;;7.10;5.50;;;37.80;44.90;;;;;;4996012;28;20481;-76
2022/07/20 11:18:15;;;;;;;9.87;6.30;;;37.80;44.60;;;;;;4978931;28;20445;-76
2022/07/20 11:20:50;;;;;;;8.07;6.00;;;37.80;44.40;;;;;;4995987;28;20864;-76
2022/07/20 11:23:20;;;;;;;7.00;6.30;;;37.80;43.70;;;;;;4978366;28;20507;-76
2022/07/20 11:25:51;;;;;;;6.60;5.97;;;37.70;43.30;;;;;;4995769;28;20429;-76
2022/07/20 11:28:25;;;;;;;5.77;5.23;;;37.70;43.40;;;;;;4996143;28;20516;-77
2022/07/20 11:30:56;;;;;;;7.20;6.07;;;37.70;43.50;;;;;;4996547;28;20524;-77
2022/07/20 11:33:27;;;;;;;7.03;6.07;;;37.70;43.30;;;;;;4996386;28;20918;-77
2022/07/20 11:36:00;;;;;;;7.30;6.60;;;37.70;43.60;;;;;;4996062;28;20468;-76
2022/07/20 11:38:36;;;;;;;6.93;6.33;;;37.70;43.80;;;;;;4995867;28;20468;-77
2022/07/20 11:41:06;;;;;;;8.80;6.97;;;37.70;43.70;;;;;;4995106;28;20508;-76
2022/07/20 11:43:48;;;;;;;7.43;6.73;;;37.80;44.50;;;;;;4996792;28;20428;-77
2022/07/20 11:46:19;;;;;;;8.10;7.07;;;37.80;44.50;;;;;;4978025;28;20448;-77
2022/07/20 11:48:54;;;;;;;8.33;7.07;;;37.80;44.30;;;;;;4981976;28;20946;-75
2022/07/20 11:51:50;;;;;;;7.33;6.63;;;37.80;43.80;;;;;;4996777;28;20536;-75
2022/07/20 11:54:21;;;;;;;6.60;6.00;;;37.80;43.60;;;;;;4996101;28;20416;-75
2022/07/20 11:56:51;;;;;;;7.00;6.37;;;37.80;43.60;;;;;;4996356;28;20465;-75
2022/07/20 11:59:20;;;;;;;7.47;6.53;;;37.80;43.60;;;;;;4995419;28;20439;-76
2022/07/20 12:01:50;;;;;;;7.50;6.80;;;37.70;43.70;;;;;;4996003;28;20500;-76
2022/07/20 12:04:21;;;;;;;7.20;6.60;;;37.70;43.90;;;;;;4979011;28;20468;-76
2022/07/20 12:06:54;;;;;;;11.70;7.80;;;37.70;43.90;;;;;;4995331;28;20421;-76
2022/07/20 12:09:24;;;;;;;7.17;6.47;;;37.70;43.90;;;;;;4995574;28;20421;-76
2022/07/20 12:11:57;;;;;;;8.23;6.10;;;37.70;44.20;;;;;;4977519;28;20880;-75
2022/07/20 12:14:35;;;;;;;6.57;6.07;;;37.70;43.70;;;;;;4995136;28;20445;-75
2022/07/20 12:17:23;;;;;;;8.30;7.30;;;37.60;43.60;;;;;;4994746;28;20472;-76
2022/07/20 12:19:54;;;;;;;7.43;6.73;;;37.50;43.60;;;;;;4995057;28;20427;-75
2022/07/20 12:22:26;;;;;;;9.40;6.53;;;37.50;43.50;;;;;;4994698;28;20472;-75
2022/07/20 12:24:56;;;;;;;7.97;7.03;;;37.50;43.70;;;;;;4995291;28;20425;-75
2022/07/20 12:27:26;;;;;;;8.40;7.60;;;37.50;43.70;;;;;;4994560;28;20934;-75
2022/07/20 12:29:55;;;;;;;8.60;7.20;;;37.50;43.90;;;;;;4994903;28;20500;-75
2022/07/20 12:32:32;;;;;;;7.67;6.87;;;37.40;43.80;;;;;;4995061;28;20456;-75
2022/07/20 12:35:03;;;;;;;8.40;7.60;;;37.50;44.00;;;;;;4977138;28;20452;-76
2022/07/20 12:37:53;;;;;;;8.63;7.33;;;37.50;44.00;;;;;;4994446;28;20461;-75
2022/07/20 12:40:37;;;;;;;7.93;7.13;;;37.50;43.80;;;;;;4994422;28;20791;-75
2022/07/20 12:43:30;;;;;;;8.03;7.23;;;37.40;43.80;;;;;;4994566;28;20464;-75
2022/07/20 12:46:00;;;;;;;10.83;8.63;;;37.30;43.80;;;;;;4994281;28;20540;-75
2022/07/20 12:48:29;;;;;;;8.47;7.77;;;37.40;43.80;;;;;;4976931;28;20440;-75
2022/07/20 12:50:57;;;;;;;10.40;8.00;;;37.30;43.90;;;;;;4993782;28;20456;-76
2022/07/20 12:53:27;;;;;;;9.27;8.37;;;37.30;44.20;;;;;;4993770;28;20527;-76
2022/07/20 12:55:56;;;;;;;17.00;10.70;;;37.30;44.50;;;;;;4976796;28;20449;-75
2022/07/20 12:58:25;;;;;;;10.03;9.13;;;37.30;45.00;;;;;;4976633;28;21013;-75
2022/07/20 13:00:53;;;;;;;9.60;8.60;;;37.30;45.70;;;;;;4994089;28;20511;-76
2022/07/20 13:03:21;;;;;;;11.40;10.37;;;37.30;45.90;;;;;;4994353;28;20488;-76
2022/07/20 13:05:50;;;;;;;12.87;11.60;;;37.20;46.10;;;;;;4994097;28;20451;-73
2022/07/20 13:08:24;;;;;;;12.10;11.10;;;37.20;46.40;;;;;;4993960;28;20638;-73